Simmons Army Air Field
KFBG : now visible

Airfield :











YOU CAN JOIN US ON...

 
LOGIN :

Register | Disclaimer

   EN    FR    IT 

 









Legend :    VFR   Marginal VFR   IFR   Intensive IFR   Very Intensive IFR
Visi :
Ceiling :
>= 8 km
>= 3000ft
5 to 8 km
1000 to 3000 ft
1500m to 5 km
500 to 1000 ft
800 to 1500m
200 to 500 ft
< 800m
< 200 ft
Symbols :   Thunderstorms  Fog  Heavy snow  Heavy precipitations  Wind > 20 kt







- Airport Elevation : 244 ft


KFBG - Simmons Army Air Field

CURRENT METAR :
  • 230956Z AUTO 00000KT 10SM CLR 10/10 A3010 RMK AO2 SLP195 T00980098

EXPIRED METARs :
  • 230856Z AUTO 00000KT 10SM CLR 10/10 A3010 RMK AO2 SLP195 T01000100 57005
  • 230756Z AUTO 00000KT 10SM CLR 10/10 A3010 RMK AO2 SLP195 T01020102

TAF TAF KFBG
Valid from the 23 at 09:00 until the 24 at 15:00 UTC


230900Z 2309/2415 VRB03KT 9999 SKC QNH3008INS
BECMG 2314/2315 21009KT 9999 SKC QNH2996INS
BECMG 2402/2403 23006KT 9999 FEW150 QNH2995INS TX26/2320Z TN09/2311Z
KZDC FIR / North America



MET'MAP, your aeronautical weather chart ! - Copyright ORBIFLY December 2007 - Disclaimer

ORBIFLY MET'MAP TEAM :

Programming & Development : Alexandra Zaïnal
Concept & Development : Baudouin d'Aumeries
Co-Development & Prog : Marc-Olivier Méhu
Technical & hardware support : Manuel Goepfert

Contact : metmap@orbifly.com




SOURCES & CREDITS :

   NOAA       Earth
Advisory